createdAt,value
2022-10-04T00:04:36.210Z,99488.72
2022-10-04T00:10:04.399Z,99485.84
2022-10-04T00:15:26.100Z,99492.91
2022-10-04T00:20:51.204Z,99491.59
2022-10-04T00:26:35.864Z,99498.38
2022-10-04T00:32:12.961Z,99486.91
2022-10-04T00:37:55.011Z,99487.00
2022-10-04T00:43:26.518Z,99481.41
2022-10-04T00:48:50.781Z,99489.28
2022-10-04T00:54:19.641Z,99493.13
2022-10-04T00:59:44.439Z,99502.59
2022-10-04T01:05:06.099Z,99495.22
2022-10-04T01:10:30.712Z,99517.19
2022-10-04T01:16:21.703Z,99512.41
2022-10-04T01:21:43.657Z,99511.91
2022-10-04T01:27:07.573Z,99525.94
2022-10-04T01:32:31.652Z,99533.50
2022-10-04T01:37:53.112Z,99526.53
2022-10-04T01:43:18.698Z,99526.53
2022-10-04T01:48:42.751Z,99530.31
2022-10-04T01:54:09.714Z,99522.25
2022-10-04T01:59:35.802Z,99529.81
2022-10-04T02:04:58.871Z,99537.06
2022-10-04T02:10:21.811Z,99525.81
2022-10-04T02:15:45.254Z,99528.78
2022-10-04T02:21:08.240Z,99529.06
2022-10-04T02:26:30.093Z,99538.22
2022-10-04T02:32:10.552Z,99541.19
2022-10-04T02:37:32.911Z,99539.91
2022-10-04T02:43:11.377Z,99528.72
2022-10-04T02:48:50.607Z,99550.72
2022-10-04T02:54:29.898Z,99552.09
2022-10-04T02:59:52.364Z,99550.00
2022-10-04T03:05:15.701Z,99564.00
2022-10-04T03:10:40.131Z,99567.00
2022-10-04T03:16:02.431Z,99558.41
2022-10-04T03:21:24.079Z,99572.16
2022-10-04T03:26:51.743Z,99565.97
2022-10-04T03:32:16.412Z,99561.66
2022-10-04T03:37:38.772Z,99572.41
2022-10-04T03:43:01.918Z,99581.56
2022-10-04T03:48:28.317Z,99577.00
2022-10-04T03:54:00.660Z,99585.84
2022-10-04T03:59:24.955Z,99585.84
2022-10-04T04:05:01.138Z,99588.84
2022-10-04T04:10:47.058Z,99590.44
2022-10-04T04:16:36.711Z,99593.06
2022-10-04T04:22:00.126Z,99594.88
2022-10-04T04:27:29.021Z,99598.00
2022-10-04T04:32:56.905Z,99606.81
2022-10-04T04:38:21.659Z,99609.34
2022-10-04T04:43:45.832Z,99615.59
2022-10-04T04:49:08.332Z,99613.22
2022-10-04T04:54:33.255Z,99598.06
2022-10-04T05:00:02.440Z,99619.69
2022-10-04T05:05:26.257Z,99621.91
2022-10-04T05:10:56.087Z,99609.16
2022-10-04T05:16:42.953Z,99631.81
2022-10-04T05:22:09.438Z,99631.81
2022-10-04T05:27:31.284Z,99628.72
2022-10-04T05:32:55.898Z,99633.91
2022-10-04T05:38:17.766Z,99631.31
2022-10-04T05:43:46.757Z,99630.44
2022-10-04T05:49:18.967Z,99640.88
2022-10-04T05:54:41.958Z,99641.06
2022-10-04T06:00:10.300Z,99638.19
2022-10-04T06:05:52.740Z,99639.56
2022-10-04T06:11:23.897Z,99627.44
2022-10-04T06:17:06.682Z,99643.72
2022-10-04T06:22:28.359Z,99644.09
2022-10-04T06:27:56.056Z,99646.50
2022-10-04T06:33:32.483Z,99654.00
2022-10-04T06:39:07.418Z,99648.28
2022-10-04T06:44:51.872Z,99648.09
2022-10-04T06:50:14.761Z,99641.38
2022-10-04T06:55:50.389Z,99652.81
2022-10-04T07:01:15.280Z,99644.81
2022-10-04T07:06:41.845Z,99642.53
2022-10-04T07:12:09.094Z,99656.38
2022-10-04T07:17:33.898Z,99642.25
2022-10-04T07:23:08.760Z,99638.06
2022-10-04T07:28:53.073Z,99652.13
2022-10-04T07:34:18.181Z,99654.13
2022-10-04T07:39:46.885Z,99658.31
2022-10-04T07:45:30.384Z,99660.50
2022-10-04T07:51:10.040Z,99663.94
2022-10-04T07:56:41.319Z,99651.09
2022-10-04T08:02:25.589Z,99654.47
2022-10-04T08:08:03.163Z,99653.94
2022-10-04T08:13:46.613Z,99658.94
2022-10-04T08:19:29.082Z,99657.22
2022-10-04T08:24:53.941Z,99661.44
2022-10-04T08:30:17.669Z,99654.31
2022-10-04T08:35:59.604Z,99648.31
2022-10-04T08:41:40.354Z,99643.69
2022-10-04T08:47:25.174Z,99647.56
2022-10-04T08:53:20.266Z,99636.34
2022-10-04T08:59:02.821Z,99634.78
2022-10-04T09:04:43.512Z,99642.59
2022-10-04T09:10:31.639Z,99649.88
2022-10-04T09:15:55.040Z,99654.53
2022-10-04T09:21:30.887Z,99648.72
2022-10-04T09:27:10.432Z,99644.44
2022-10-04T09:33:00.321Z,99642.50
2022-10-04T09:44:41.339Z,99641.91
2022-10-04T09:50:32.459Z,99648.56
2022-10-04T09:56:09.639Z,99642.44
2022-10-04T10:01:58.599Z,99649.66
2022-10-04T10:08:12.655Z,99638.69
2022-10-04T10:14:09.621Z,99617.03
2022-10-04T10:19:52.600Z,99612.41
2022-10-04T10:25:27.188Z,99630.88
2022-10-04T10:31:20.332Z,99619.56
2022-10-04T10:36:43.256Z,99633.84
2022-10-04T10:42:07.051Z,99632.84
2022-10-04T10:47:47.537Z,99639.88
2022-10-04T10:53:32.565Z,99630.13
2022-10-04T10:59:09.784Z,99634.41
2022-10-04T11:04:59.506Z,99617.22
2022-10-04T11:10:42.425Z,99623.56
2022-10-04T11:16:28.198Z,99614.50
2022-10-04T11:22:18.458Z,99621.28
2022-10-04T11:27:49.726Z,99614.69
2022-10-04T11:33:20.753Z,99599.97
2022-10-04T11:39:12.139Z,99600.31
2022-10-04T11:45:02.501Z,99602.13
2022-10-04T11:50:31.978Z,99612.13
2022-10-04T11:56:11.691Z,99604.75
2022-10-04T12:01:46.207Z,99602.91
2022-10-04T12:07:31.437Z,99597.38
2022-10-04T12:13:31.239Z,99599.19
2022-10-04T12:19:08.423Z,99585.84
2022-10-04T12:24:33.731Z,99572.22
2022-10-04T12:30:04.321Z,99591.38
2022-10-04T12:35:31.357Z,99587.28
2022-10-04T12:41:16.699Z,99576.63
2022-10-04T12:46:38.284Z,99579.78
2022-10-04T12:52:00.033Z,99577.50
2022-10-04T12:57:31.592Z,99577.03
2022-10-04T13:03:03.274Z,99575.91
2022-10-04T13:08:31.492Z,99577.56
2022-10-04T13:14:07.382Z,99575.72
2022-10-04T13:19:32.081Z,99562.00
2022-10-04T13:25:00.765Z,99568.09
2022-10-04T13:30:27.382Z,99576.25
2022-10-04T13:35:52.301Z,99562.00
2022-10-04T13:41:17.479Z,99570.97
2022-10-04T13:46:59.580Z,99556.78
2022-10-04T13:52:58.732Z,99561.50
2022-10-04T13:58:26.705Z,99558.56
2022-10-04T14:03:51.800Z,99577.22
2022-10-04T14:09:36.821Z,99641.00
2022-10-04T14:15:01.968Z,99678.69
2022-10-04T14:20:33.251Z,99664.47
2022-10-04T14:26:10.778Z,99651.00
2022-10-04T14:31:42.761Z,99654.31
2022-10-04T14:37:27.299Z,99629.78
2022-10-04T14:42:58.810Z,99621.03
2022-10-04T14:48:39.759Z,99621.66
2022-10-04T14:54:05.102Z,99628.97
2022-10-04T14:59:45.700Z,99621.19
2022-10-04T15:05:30.439Z,99619.25
2022-10-04T15:11:07.380Z,99621.00
2022-10-04T15:16:37.562Z,99621.94
2022-10-04T15:22:03.583Z,99631.97
2022-10-04T15:27:28.398Z,99626.88
2022-10-04T15:33:02.354Z,99632.59
2022-10-04T15:38:34.268Z,99633.72
2022-10-04T15:44:12.292Z,99633.09
2022-10-04T15:49:37.298Z,99635.63
2022-10-04T15:55:20.318Z,99643.59
2022-10-04T16:00:44.242Z,99639.66
2022-10-04T16:06:13.091Z,99642.19
2022-10-04T16:11:40.821Z,99652.88
2022-10-04T16:23:28.661Z,99636.63
2022-10-04T16:28:56.440Z,99675.28
2022-10-04T16:34:18.497Z,99649.66
2022-10-04T16:40:08.358Z,99638.00
2022-10-04T16:45:33.362Z,99700.25
2022-10-04T16:51:05.062Z,99719.06
2022-10-04T16:56:32.477Z,99695.91
2022-10-04T17:02:15.399Z,99688.38
2022-10-04T17:08:02.879Z,99684.88
2022-10-04T17:13:43.814Z,99679.16
2022-10-04T17:19:15.935Z,99702.69
2022-10-04T17:24:55.741Z,99703.28
2022-10-04T17:30:19.491Z,99712.63
2022-10-04T17:35:46.658Z,99701.34
2022-10-04T17:41:26.879Z,99692.28
2022-10-04T17:46:48.893Z,99696.50
2022-10-04T17:52:52.937Z,99694.91
2022-10-04T17:58:14.926Z,99704.44
2022-10-04T18:03:39.375Z,99712.84
2022-10-04T18:09:04.450Z,99705.38
2022-10-04T18:14:38.546Z,99695.34
2022-10-04T18:20:09.879Z,99708.94
2022-10-04T18:25:32.688Z,99691.56
2022-10-04T18:31:01.758Z,99694.09
2022-10-04T18:36:28.032Z,99702.63
2022-10-04T18:42:00.118Z,99689.06
2022-10-04T18:47:39.758Z,99683.97
2022-10-04T18:53:01.738Z,99679.38
2022-10-04T18:58:52.686Z,99677.28
2022-10-04T19:04:17.786Z,99679.47
2022-10-04T19:09:59.473Z,99688.19
2022-10-04T19:15:27.155Z,99680.91
2022-10-04T19:21:34.387Z,99677.38
2022-10-04T19:27:33.216Z,99677.09
2022-10-04T19:39:35.289Z,99664.06
2022-10-04T19:45:26.366Z,99669.28
2022-10-04T19:51:01.966Z,99659.31
2022-10-04T19:56:30.592Z,99655.41
2022-10-04T20:01:56.420Z,99653.31
2022-10-04T20:07:31.966Z,99660.34
2022-10-04T20:19:18.794Z,99632.06
2022-10-04T20:24:40.831Z,99640.94
2022-10-04T20:30:05.071Z,99637.75
2022-10-04T20:36:09.531Z,99635.22
2022-10-04T20:41:54.594Z,99633.34
2022-10-04T20:47:38.749Z,99636.94
2022-10-04T20:53:03.393Z,99617.78
2022-10-04T20:58:28.992Z,99620.47
2022-10-04T21:03:50.412Z,99617.28
2022-10-04T21:09:12.780Z,99612.38
2022-10-04T21:14:38.008Z,99599.97
2022-10-04T21:20:03.094Z,99599.97
2022-10-04T21:25:57.673Z,99602.19
2022-10-04T21:31:32.627Z,99593.09
2022-10-04T21:37:00.713Z,99599.41
2022-10-04T21:42:25.832Z,99594.63
2022-10-04T21:47:50.492Z,99593.84
2022-10-04T21:53:14.232Z,99588.72
2022-10-04T21:58:39.872Z,99585.56
2022-10-04T22:04:12.875Z,99580.47
2022-10-04T22:09:46.980Z,99584.25
2022-10-04T22:15:33.779Z,99574.59
2022-10-04T22:21:12.472Z,99563.00
2022-10-04T22:26:34.371Z,99548.22
2022-10-04T22:31:56.137Z,99557.53
2022-10-04T22:37:20.712Z,99551.34
2022-10-04T22:42:42.852Z,99545.16
2022-10-04T22:48:11.153Z,99535.94
2022-10-04T22:53:33.200Z,99535.34
2022-10-04T22:59:00.959Z,99544.91
2022-10-04T23:04:24.510Z,99528.91
2022-10-04T23:09:46.289Z,99531.28
2022-10-04T23:15:08.465Z,99518.59
2022-10-04T23:20:30.712Z,99512.41
2022-10-04T23:25:52.782Z,99512.72
2022-10-04T23:31:17.630Z,99511.31
2022-10-04T23:36:39.179Z,99508.78
2022-10-04T23:42:02.273Z,99504.66
2022-10-04T23:47:26.112Z,99499.47
2022-10-04T23:52:48.652Z,99495.34
2022-10-04T23:58:14.893Z,99487.63
